sensor_id;sensor_type;location;lat;lon;timestamp;P1;durP1;ratioP1;P2;durP2;ratioP2
24761;SDS011;12865;51.934;10.330;2022-09-24T00:00:46;3.03;;;2.83;;
24761;SDS011;12865;51.934;10.330;2022-09-24T00:06:21;4.15;;;3.50;;
24761;SDS011;12865;51.934;10.330;2022-09-24T00:09:07;4.30;;;3.60;;
24761;SDS011;12865;51.934;10.330;2022-09-24T00:11:54;3.90;;;3.50;;
24761;SDS011;12865;51.934;10.330;2022-09-24T00:14:39;5.72;;;3.83;;
24761;SDS011;12865;51.934;10.330;2022-09-24T00:17:25;4.20;;;3.67;;
24761;SDS011;12865;51.934;10.330;2022-09-24T00:20:11;4.30;;;3.50;;
24761;SDS011;12865;51.934;10.330;2022-09-24T00:22:57;4.20;;;3.80;;
24761;SDS011;12865;51.934;10.330;2022-09-24T00:25:43;4.20;;;3.70;;
24761;SDS011;12865;51.934;10.330;2022-09-24T00:28:51;4.38;;;3.72;;
24761;SDS011;12865;51.934;10.330;2022-09-24T00:31:37;6.18;;;3.40;;
24761;SDS011;12865;51.934;10.330;2022-09-24T00:34:23;3.60;;;3.28;;
24761;SDS011;12865;51.934;10.330;2022-09-24T00:37:09;4.25;;;3.47;;
24761;SDS011;12865;51.934;10.330;2022-09-24T00:39:55;7.18;;;3.20;;
24761;SDS011;12865;51.934;10.330;2022-09-24T00:42:41;5.05;;;3.60;;
24761;SDS011;12865;51.934;10.330;2022-09-24T00:45:27;5.43;;;3.78;;
24761;SDS011;12865;51.934;10.330;2022-09-24T00:48:15;3.78;;;3.47;;
24761;SDS011;12865;51.934;10.330;2022-09-24T00:51:00;3.80;;;3.50;;
24761;SDS011;12865;51.934;10.330;2022-09-24T00:53:50;3.90;;;3.30;;
24761;SDS011;12865;51.934;10.330;2022-09-24T00:56:39;5.70;;;3.63;;
24761;SDS011;12865;51.934;10.330;2022-09-24T00:59:27;3.35;;;2.95;;
24761;SDS011;12865;51.934;10.330;2022-09-24T01:02:14;3.30;;;3.00;;
24761;SDS011;12865;51.934;10.330;2022-09-24T01:05:00;4.20;;;2.97;;
24761;SDS011;12865;51.934;10.330;2022-09-24T01:07:46;3.05;;;2.75;;
24761;SDS011;12865;51.934;10.330;2022-09-24T01:13:35;3.03;;;2.80;;
24761;SDS011;12865;51.934;10.330;2022-09-24T01:35:34;3.50;;;3.20;;
24761;SDS011;12865;51.934;10.330;2022-09-24T01:38:27;3.60;;;3.30;;
24761;SDS011;12865;51.934;10.330;2022-09-24T01:41:15;6.10;;;3.53;;
24761;SDS011;12865;51.934;10.330;2022-09-24T01:44:03;3.97;;;3.53;;
24761;SDS011;12865;51.934;10.330;2022-09-24T01:46:52;3.80;;;3.38;;
24761;SDS011;12865;51.934;10.330;2022-09-24T01:49:38;6.28;;;3.58;;
24761;SDS011;12865;51.934;10.330;2022-09-24T01:52:24;4.95;;;3.67;;
24761;SDS011;12865;51.934;10.330;2022-09-24T01:55:16;4.25;;;3.50;;
24761;SDS011;12865;51.934;10.330;2022-09-24T01:58:07;3.83;;;3.22;;
24761;SDS011;12865;51.934;10.330;2022-09-24T02:00:57;3.20;;;2.90;;
24761;SDS011;12865;51.934;10.330;2022-09-24T02:03:52;4.18;;;2.90;;
24761;SDS011;12865;51.934;10.330;2022-09-24T02:12:35;3.35;;;2.60;;
24761;SDS011;12865;51.934;10.330;2022-09-24T02:15:27;3.38;;;3.03;;
24761;SDS011;12865;51.934;10.330;2022-09-24T02:18:18;3.63;;;2.92;;
24761;SDS011;12865;51.934;10.330;2022-09-24T02:21:09;4.57;;;3.22;;
24761;SDS011;12865;51.934;10.330;2022-09-24T02:24:06;3.08;;;2.70;;
24761;SDS011;12865;51.934;10.330;2022-09-24T02:26:58;3.20;;;2.97;;
24761;SDS011;12865;51.934;10.330;2022-09-24T02:29:44;3.35;;;3.05;;
24761;SDS011;12865;51.934;10.330;2022-09-24T02:32:31;7.57;;;3.40;;
24761;SDS011;12865;51.934;10.330;2022-09-24T02:35:20;4.43;;;4.00;;
24761;SDS011;12865;51.934;10.330;2022-09-24T02:38:14;3.78;;;3.40;;
24761;SDS011;12865;51.934;10.330;2022-09-24T02:41:00;3.58;;;3.28;;
24761;SDS011;12865;51.934;10.330;2022-09-24T02:43:46;3.50;;;3.22;;
24761;SDS011;12865;51.934;10.330;2022-09-24T02:46:32;4.03;;;3.08;;
24761;SDS011;12865;51.934;10.330;2022-09-24T02:49:17;3.70;;;3.20;;
24761;SDS011;12865;51.934;10.330;2022-09-24T02:52:03;4.13;;;3.17;;
24761;SDS011;12865;51.934;10.330;2022-09-24T02:54:49;4.25;;;2.85;;
24761;SDS011;12865;51.934;10.330;2022-09-24T02:57:35;4.32;;;3.15;;
24761;SDS011;12865;51.934;10.330;2022-09-24T03:00:21;3.42;;;2.90;;
24761;SDS011;12865;51.934;10.330;2022-09-24T03:03:06;3.20;;;2.70;;
24761;SDS011;12865;51.934;10.330;2022-09-24T03:05:52;3.33;;;3.08;;
24761;SDS011;12865;51.934;10.330;2022-09-24T03:08:39;3.40;;;3.13;;
24761;SDS011;12865;51.934;10.330;2022-09-24T03:11:26;7.95;;;3.17;;
24761;SDS011;12865;51.934;10.330;2022-09-24T03:14:13;4.25;;;2.83;;
24761;SDS011;12865;51.934;10.330;2022-09-24T03:16:58;3.05;;;2.80;;
24761;SDS011;12865;51.934;10.330;2022-09-24T03:19:44;3.70;;;3.40;;
24761;SDS011;12865;51.934;10.330;2022-09-24T03:22:30;3.15;;;2.90;;
24761;SDS011;12865;51.934;10.330;2022-09-24T03:25:16;3.08;;;2.60;;
24761;SDS011;12865;51.934;10.330;2022-09-24T03:28:02;4.60;;;3.13;;
24761;SDS011;12865;51.934;10.330;2022-09-24T03:30:48;3.72;;;3.42;;
24761;SDS011;12865;51.934;10.330;2022-09-24T03:33:46;3.60;;;3.30;;
24761;SDS011;12865;51.934;10.330;2022-09-24T03:36:33;5.97;;;3.10;;
24761;SDS011;12865;51.934;10.330;2022-09-24T03:39:19;4.05;;;3.22;;
24761;SDS011;12865;51.934;10.330;2022-09-24T03:42:15;3.42;;;2.92;;
24761;SDS011;12865;51.934;10.330;2022-09-24T03:45:00;3.05;;;2.78;;
24761;SDS011;12865;51.934;10.330;2022-09-24T03:47:46;6.38;;;3.53;;
24761;SDS011;12865;51.934;10.330;2022-09-24T03:50:34;3.45;;;3.15;;
24761;SDS011;12865;51.934;10.330;2022-09-24T03:56:07;5.25;;;2.97;;
24761;SDS011;12865;51.934;10.330;2022-09-24T03:58:53;3.75;;;3.13;;
24761;SDS011;12865;51.934;10.330;2022-09-24T04:01:39;4.32;;;3.05;;
24761;SDS011;12865;51.934;10.330;2022-09-24T04:04:25;3.00;;;2.80;;
24761;SDS011;12865;51.934;10.330;2022-09-24T04:07:10;3.60;;;3.28;;
24761;SDS011;12865;51.934;10.330;2022-09-24T04:09:56;3.25;;;2.97;;
24761;SDS011;12865;51.934;10.330;2022-09-24T04:12:42;3.80;;;3.50;;
24761;SDS011;12865;51.934;10.330;2022-09-24T04:15:28;3.47;;;3.17;;
24761;SDS011;12865;51.934;10.330;2022-09-24T04:18:14;3.50;;;3.20;;
24761;SDS011;12865;51.934;10.330;2022-09-24T04:21:00;3.53;;;3.30;;
24761;SDS011;12865;51.934;10.330;2022-09-24T04:23:46;3.45;;;3.22;;
24761;SDS011;12865;51.934;10.330;2022-09-24T04:26:32;6.75;;;4.40;;
24761;SDS011;12865;51.934;10.330;2022-09-24T04:29:17;5.65;;;4.05;;
24761;SDS011;12865;51.934;10.330;2022-09-24T04:32:03;5.03;;;4.63;;
24761;SDS011;12865;51.934;10.330;2022-09-24T04:34:49;5.75;;;5.18;;
24761;SDS011;12865;51.934;10.330;2022-09-24T04:37:34;5.00;;;4.50;;
24761;SDS011;12865;51.934;10.330;2022-09-24T04:40:21;4.80;;;4.20;;
24761;SDS011;12865;51.934;10.330;2022-09-24T04:43:07;5.85;;;4.50;;
24761;SDS011;12865;51.934;10.330;2022-09-24T04:45:55;6.07;;;5.57;;
24761;SDS011;12865;51.934;10.330;2022-09-24T04:48:41;3.37;;;3.07;;
24761;SDS011;12865;51.934;10.330;2022-09-24T04:51:26;3.50;;;2.90;;
24761;SDS011;12865;51.934;10.330;2022-09-24T04:54:12;4.10;;;3.13;;
24761;SDS011;12865;51.934;10.330;2022-09-24T04:56:58;3.70;;;3.40;;
24761;SDS011;12865;51.934;10.330;2022-09-24T04:59:43;3.88;;;3.58;;
24761;SDS011;12865;51.934;10.330;2022-09-24T05:02:29;4.60;;;3.50;;
24761;SDS011;12865;51.934;10.330;2022-09-24T05:05:15;3.47;;;3.28;;
24761;SDS011;12865;51.934;10.330;2022-09-24T05:08:01;3.55;;;3.25;;
24761;SDS011;12865;51.934;10.330;2022-09-24T05:10:47;4.03;;;3.42;;
24761;SDS011;12865;51.934;10.330;2022-09-24T05:13:33;3.88;;;3.33;;
24761;SDS011;12865;51.934;10.330;2022-09-24T05:16:20;3.60;;;3.22;;
24761;SDS011;12865;51.934;10.330;2022-09-24T05:19:06;3.97;;;3.55;;
24761;SDS011;12865;51.934;10.330;2022-09-24T05:21:52;4.80;;;4.40;;
24761;SDS011;12865;51.934;10.330;2022-09-24T05:24:37;6.45;;;4.93;;
24761;SDS011;12865;51.934;10.330;2022-09-24T05:27:23;4.25;;;3.95;;
24761;SDS011;12865;51.934;10.330;2022-09-24T05:30:09;3.50;;;3.20;;
24761;SDS011;12865;51.934;10.330;2022-09-24T05:32:55;2.92;;;2.72;;
24761;SDS011;12865;51.934;10.330;2022-09-24T05:35:41;3.75;;;3.10;;
24761;SDS011;12865;51.934;10.330;2022-09-24T05:38:27;4.30;;;3.75;;
24761;SDS011;12865;51.934;10.330;2022-09-24T05:41:14;5.63;;;4.53;;
24761;SDS011;12865;51.934;10.330;2022-09-24T05:44:00;6.20;;;4.90;;
24761;SDS011;12865;51.934;10.330;2022-09-24T05:46:49;5.07;;;4.50;;
24761;SDS011;12865;51.934;10.330;2022-09-24T05:49:36;5.35;;;4.72;;
24761;SDS011;12865;51.934;10.330;2022-09-24T05:52:22;4.70;;;4.30;;
24761;SDS011;12865;51.934;10.330;2022-09-24T05:55:09;4.07;;;3.33;;
24761;SDS011;12865;51.934;10.330;2022-09-24T05:57:55;5.55;;;3.40;;
24761;SDS011;12865;51.934;10.330;2022-09-24T06:00:46;3.83;;;3.53;;
24761;SDS011;12865;51.934;10.330;2022-09-24T06:03:31;4.00;;;3.30;;
24761;SDS011;12865;51.934;10.330;2022-09-24T06:06:17;4.05;;;3.50;;
24761;SDS011;12865;51.934;10.330;2022-09-24T06:09:03;4.47;;;3.45;;
24761;SDS011;12865;51.934;10.330;2022-09-24T06:11:49;3.30;;;3.10;;
24761;SDS011;12865;51.934;10.330;2022-09-24T06:14:37;3.92;;;3.40;;
24761;SDS011;12865;51.934;10.330;2022-09-24T06:17:23;4.18;;;3.65;;
24761;SDS011;12865;51.934;10.330;2022-09-24T06:20:10;4.00;;;3.67;;
24761;SDS011;12865;51.934;10.330;2022-09-24T06:22:55;3.80;;;3.50;;
24761;SDS011;12865;51.934;10.330;2022-09-24T06:25:47;4.13;;;3.80;;
24761;SDS011;12865;51.934;10.330;2022-09-24T06:28:34;4.45;;;4.05;;
24761;SDS011;12865;51.934;10.330;2022-09-24T06:31:21;6.45;;;4.55;;
24761;SDS011;12865;51.934;10.330;2022-09-24T06:34:07;4.93;;;3.75;;
24761;SDS011;12865;51.934;10.330;2022-09-24T06:36:53;3.22;;;3.03;;
24761;SDS011;12865;51.934;10.330;2022-09-24T06:39:39;3.67;;;3.38;;
24761;SDS011;12865;51.934;10.330;2022-09-24T06:42:25;3.53;;;3.20;;
24761;SDS011;12865;51.934;10.330;2022-09-24T06:45:12;4.15;;;3.83;;
24761;SDS011;12865;51.934;10.330;2022-09-24T06:47:58;4.35;;;3.40;;
24761;SDS011;12865;51.934;10.330;2022-09-24T06:50:45;3.78;;;3.28;;
24761;SDS011;12865;51.934;10.330;2022-09-24T06:53:31;3.20;;;2.90;;
24761;SDS011;12865;51.934;10.330;2022-09-24T06:56:17;3.05;;;2.85;;
24761;SDS011;12865;51.934;10.330;2022-09-24T06:59:03;3.65;;;3.30;;
24761;SDS011;12865;51.934;10.330;2022-09-24T07:01:48;3.72;;;3.40;;
24761;SDS011;12865;51.934;10.330;2022-09-24T07:04:34;4.07;;;3.78;;
24761;SDS011;12865;51.934;10.330;2022-09-24T07:07:20;3.80;;;3.50;;
24761;SDS011;12865;51.934;10.330;2022-09-24T07:10:16;3.60;;;3.30;;
24761;SDS011;12865;51.934;10.330;2022-09-24T07:13:01;5.63;;;3.40;;
24761;SDS011;12865;51.934;10.330;2022-09-24T07:15:50;4.07;;;3.78;;
24761;SDS011;12865;51.934;10.330;2022-09-24T07:18:37;3.65;;;3.35;;
24761;SDS011;12865;51.934;10.330;2022-09-24T07:21:23;4.35;;;3.90;;
24761;SDS011;12865;51.934;10.330;2022-09-24T07:24:08;4.53;;;3.88;;
24761;SDS011;12865;51.934;10.330;2022-09-24T07:26:54;4.13;;;3.80;;
24761;SDS011;12865;51.934;10.330;2022-09-24T07:29:39;4.63;;;4.13;;
24761;SDS011;12865;51.934;10.330;2022-09-24T07:32:25;4.18;;;3.03;;
24761;SDS011;12865;51.934;10.330;2022-09-24T07:35:11;3.67;;;3.28;;
24761;SDS011;12865;51.934;10.330;2022-09-24T07:37:57;5.13;;;3.45;;
24761;SDS011;12865;51.934;10.330;2022-09-24T07:40:45;3.35;;;3.15;;
24761;SDS011;12865;51.934;10.330;2022-09-24T07:43:30;5.70;;;3.08;;
24761;SDS011;12865;51.934;10.330;2022-09-24T07:46:17;4.55;;;3.17;;
24761;SDS011;12865;51.934;10.330;2022-09-24T07:49:04;4.25;;;3.30;;
24761;SDS011;12865;51.934;10.330;2022-09-24T07:51:50;3.55;;;3.05;;
24761;SDS011;12865;51.934;10.330;2022-09-24T07:54:36;3.75;;;2.90;;
24761;SDS011;12865;51.934;10.330;2022-09-24T07:57:22;4.18;;;2.70;;
24761;SDS011;12865;51.934;10.330;2022-09-24T08:00:07;5.25;;;3.90;;
24761;SDS011;12865;51.934;10.330;2022-09-24T08:02:54;4.30;;;3.63;;
24761;SDS011;12865;51.934;10.330;2022-09-24T08:05:41;4.65;;;3.72;;
24761;SDS011;12865;51.934;10.330;2022-09-24T08:11:15;3.45;;;3.10;;
24761;SDS011;12865;51.934;10.330;2022-09-24T08:14:04;4.50;;;3.00;;
24761;SDS011;12865;51.934;10.330;2022-09-24T08:16:50;3.90;;;3.60;;
24761;SDS011;12865;51.934;10.330;2022-09-24T08:19:35;4.75;;;3.08;;
24761;SDS011;12865;51.934;10.330;2022-09-24T08:22:21;5.80;;;2.97;;
24761;SDS011;12865;51.934;10.330;2022-09-24T08:25:08;4.32;;;2.90;;
24761;SDS011;12865;51.934;10.330;2022-09-24T08:27:54;3.63;;;3.10;;
24761;SDS011;12865;51.934;10.330;2022-09-24T08:30:40;3.92;;;3.40;;
24761;SDS011;12865;51.934;10.330;2022-09-24T08:33:29;8.23;;;3.40;;
24761;SDS011;12865;51.934;10.330;2022-09-24T08:36:16;3.90;;;3.40;;
24761;SDS011;12865;51.934;10.330;2022-09-24T08:39:05;4.13;;;3.33;;
24761;SDS011;12865;51.934;10.330;2022-09-24T08:41:57;3.45;;;3.15;;
24761;SDS011;12865;51.934;10.330;2022-09-24T08:44:46;5.32;;;3.55;;
24761;SDS011;12865;51.934;10.330;2022-09-24T08:47:55;4.97;;;4.47;;
24761;SDS011;12865;51.934;10.330;2022-09-24T08:50:52;5.63;;;4.63;;
24761;SDS011;12865;51.934;10.330;2022-09-24T08:56:38;6.47;;;5.18;;
24761;SDS011;12865;51.934;10.330;2022-09-24T09:05:37;6.85;;;4.57;;
24761;SDS011;12865;51.934;10.330;2022-09-24T09:09:17;8.15;;;5.07;;
24761;SDS011;12865;51.934;10.330;2022-09-24T09:11:44;5.63;;;4.80;;
24761;SDS011;12865;51.934;10.330;2022-09-24T09:20:13;5.78;;;4.38;;
24761;SDS011;12865;51.934;10.330;2022-09-24T09:23:11;5.03;;;3.83;;
24761;SDS011;12865;51.934;10.330;2022-09-24T09:26:01;4.30;;;3.97;;
24761;SDS011;12865;51.934;10.330;2022-09-24T09:28:47;6.15;;;3.85;;
24761;SDS011;12865;51.934;10.330;2022-09-24T09:44:12;4.90;;;4.00;;
24761;SDS011;12865;51.934;10.330;2022-09-24T09:49:55;5.40;;;3.95;;
24761;SDS011;12865;51.934;10.330;2022-09-24T09:52:45;4.18;;;3.78;;
24761;SDS011;12865;51.934;10.330;2022-09-24T09:55:35;4.38;;;3.97;;
24761;SDS011;12865;51.934;10.330;2022-09-24T09:58:22;5.70;;;3.95;;
24761;SDS011;12865;51.934;10.330;2022-09-24T10:01:14;4.30;;;3.75;;
24761;SDS011;12865;51.934;10.330;2022-09-24T10:04:04;4.35;;;3.95;;
24761;SDS011;12865;51.934;10.330;2022-09-24T10:06:49;4.70;;;3.90;;
24761;SDS011;12865;51.934;10.330;2022-09-24T10:09:36;4.20;;;3.78;;
24761;SDS011;12865;51.934;10.330;2022-09-24T10:12:22;3.92;;;3.55;;
24761;SDS011;12865;51.934;10.330;2022-09-24T10:17:59;4.40;;;3.35;;
24761;SDS011;12865;51.934;10.330;2022-09-24T10:20:45;5.07;;;3.47;;
24761;SDS011;12865;51.934;10.330;2022-09-24T10:23:36;4.13;;;3.22;;
24761;SDS011;12865;51.934;10.330;2022-09-24T10:26:34;4.13;;;3.72;;
24761;SDS011;12865;51.934;10.330;2022-09-24T10:32:32;7.88;;;3.78;;
24761;SDS011;12865;51.934;10.330;2022-09-24T10:35:24;4.35;;;3.83;;
24761;SDS011;12865;51.934;10.330;2022-09-24T10:38:16;5.00;;;4.50;;
24761;SDS011;12865;51.934;10.330;2022-09-24T10:41:13;5.38;;;4.63;;
24761;SDS011;12865;51.934;10.330;2022-09-24T10:44:07;6.40;;;5.80;;
24761;SDS011;12865;51.934;10.330;2022-09-24T10:52:53;5.88;;;5.25;;
24761;SDS011;12865;51.934;10.330;2022-09-24T10:55:48;7.45;;;5.00;;
24761;SDS011;12865;51.934;10.330;2022-09-24T10:58:59;7.88;;;5.28;;
24761;SDS011;12865;51.934;10.330;2022-09-24T11:04:58;5.40;;;4.90;;
24761;SDS011;12865;51.934;10.330;2022-09-24T11:11:13;6.75;;;5.20;;
24761;SDS011;12865;51.934;10.330;2022-09-24T11:20:19;6.15;;;5.40;;
24761;SDS011;12865;51.934;10.330;2022-09-24T11:26:21;7.78;;;6.32;;
24761;SDS011;12865;51.934;10.330;2022-09-24T11:32:50;9.50;;;6.88;;
24761;SDS011;12865;51.934;10.330;2022-09-24T11:54:54;9.40;;;7.78;;
24761;SDS011;12865;51.934;10.330;2022-09-24T11:57:55;10.15;;;8.93;;
24761;SDS011;12865;51.934;10.330;2022-09-24T12:00:55;12.73;;;9.82;;
24761;SDS011;12865;51.934;10.330;2022-09-24T12:06:42;12.60;;;9.05;;
24761;SDS011;12865;51.934;10.330;2022-09-24T12:09:46;11.85;;;8.70;;
24761;SDS011;12865;51.934;10.330;2022-09-24T12:12:38;10.40;;;8.38;;
24761;SDS011;12865;51.934;10.330;2022-09-24T12:15:29;12.70;;;8.05;;
24761;SDS011;12865;51.934;10.330;2022-09-24T12:18:25;10.85;;;8.18;;
24761;SDS011;12865;51.934;10.330;2022-09-24T12:21:14;11.25;;;7.72;;
24761;SDS011;12865;51.934;10.330;2022-09-24T12:27:36;10.38;;;7.03;;
24761;SDS011;12865;51.934;10.330;2022-09-24T12:37:13;9.35;;;8.05;;
24761;SDS011;12865;51.934;10.330;2022-09-24T12:40:07;8.60;;;7.70;;
24761;SDS011;12865;51.934;10.330;2022-09-24T12:43:31;14.38;;;8.15;;
24761;SDS011;12865;51.934;10.330;2022-09-24T12:46:26;10.07;;;8.07;;
24761;SDS011;12865;51.934;10.330;2022-09-24T12:49:18;11.43;;;9.30;;
24761;SDS011;12865;51.934;10.330;2022-09-24T12:52:16;10.38;;;9.07;;
24761;SDS011;12865;51.934;10.330;2022-09-24T12:55:18;10.40;;;8.82;;
24761;SDS011;12865;51.934;10.330;2022-09-24T12:58:05;10.15;;;7.88;;
24761;SDS011;12865;51.934;10.330;2022-09-24T13:01:11;14.68;;;7.90;;
24761;SDS011;12865;51.934;10.330;2022-09-24T13:06:58;12.82;;;10.07;;
24761;SDS011;12865;51.934;10.330;2022-09-24T13:09:44;13.85;;;10.52;;
24761;SDS011;12865;51.934;10.330;2022-09-24T13:12:30;15.93;;;12.00;;
24761;SDS011;12865;51.934;10.330;2022-09-24T13:15:29;17.98;;;11.90;;
24761;SDS011;12865;51.934;10.330;2022-09-24T13:18:21;14.48;;;12.57;;
24761;SDS011;12865;51.934;10.330;2022-09-24T13:21:17;18.88;;;12.68;;
24761;SDS011;12865;51.934;10.330;2022-09-24T13:24:09;16.55;;;13.32;;
24761;SDS011;12865;51.934;10.330;2022-09-24T13:27:16;16.50;;;13.07;;
24761;SDS011;12865;51.934;10.330;2022-09-24T13:38:44;18.02;;;12.90;;
24761;SDS011;12865;51.934;10.330;2022-09-24T13:45:02;17.75;;;12.02;;
24761;SDS011;12865;51.934;10.330;2022-09-24T13:50:57;13.20;;;8.50;;
24761;SDS011;12865;51.934;10.330;2022-09-24T13:53:48;8.90;;;7.75;;
24761;SDS011;12865;51.934;10.330;2022-09-24T13:56:39;9.95;;;7.57;;
24761;SDS011;12865;51.934;10.330;2022-09-24T13:59:25;10.25;;;7.60;;
24761;SDS011;12865;51.934;10.330;2022-09-24T14:02:22;9.70;;;6.72;;
24761;SDS011;12865;51.934;10.330;2022-09-24T14:05:16;9.65;;;6.70;;
24761;SDS011;12865;51.934;10.330;2022-09-24T14:10:31;7.60;;;6.90;;
24761;SDS011;12865;51.934;10.330;2022-09-24T14:13:22;10.07;;;6.50;;
24761;SDS011;12865;51.934;10.330;2022-09-24T14:16:13;7.65;;;6.90;;
24761;SDS011;12865;51.934;10.330;2022-09-24T14:19:01;8.32;;;6.50;;
24761;SDS011;12865;51.934;10.330;2022-09-24T14:21:50;7.93;;;6.25;;
24761;SDS011;12865;51.934;10.330;2022-09-24T14:25:01;7.53;;;6.60;;
24761;SDS011;12865;51.934;10.330;2022-09-24T14:27:53;7.28;;;6.57;;
24761;SDS011;12865;51.934;10.330;2022-09-24T14:30:47;7.55;;;5.97;;
24761;SDS011;12865;51.934;10.330;2022-09-24T14:33:35;7.03;;;6.32;;
24761;SDS011;12865;51.934;10.330;2022-09-24T14:36:24;8.10;;;6.63;;
24761;SDS011;12865;51.934;10.330;2022-09-24T14:39:13;10.35;;;8.40;;
24761;SDS011;12865;51.934;10.330;2022-09-24T14:41:59;8.18;;;7.38;;
24761;SDS011;12865;51.934;10.330;2022-09-24T14:44:45;8.93;;;8.02;;
24761;SDS011;12865;51.934;10.330;2022-09-24T14:47:32;8.20;;;7.40;;
24761;SDS011;12865;51.934;10.330;2022-09-24T14:50:38;9.00;;;7.63;;
24761;SDS011;12865;51.934;10.330;2022-09-24T14:53:34;8.55;;;7.63;;
24761;SDS011;12865;51.934;10.330;2022-09-24T14:59:15;8.73;;;7.68;;
24761;SDS011;12865;51.934;10.330;2022-09-24T15:02:19;8.63;;;7.47;;
24761;SDS011;12865;51.934;10.330;2022-09-24T15:05:08;8.57;;;7.70;;
24761;SDS011;12865;51.934;10.330;2022-09-24T15:11:03;9.73;;;8.63;;
24761;SDS011;12865;51.934;10.330;2022-09-24T15:13:56;9.48;;;8.48;;
24761;SDS011;12865;51.934;10.330;2022-09-24T15:17:17;8.70;;;7.88;;
24761;SDS011;12865;51.934;10.330;2022-09-24T15:20:08;10.48;;;7.95;;
24761;SDS011;12865;51.934;10.330;2022-09-24T15:22:55;9.23;;;8.30;;
24761;SDS011;12865;51.934;10.330;2022-09-24T15:25:41;7.78;;;7.00;;
24761;SDS011;12865;51.934;10.330;2022-09-24T15:28:28;9.15;;;8.25;;
24761;SDS011;12865;51.934;10.330;2022-09-24T15:31:13;8.95;;;8.05;;
24761;SDS011;12865;51.934;10.330;2022-09-24T15:33:59;8.38;;;7.47;;
24761;SDS011;12865;51.934;10.330;2022-09-24T15:36:46;8.98;;;7.72;;
24761;SDS011;12865;51.934;10.330;2022-09-24T15:39:38;8.70;;;7.80;;
24761;SDS011;12865;51.934;10.330;2022-09-24T15:42:25;9.10;;;7.88;;
24761;SDS011;12865;51.934;10.330;2022-09-24T15:45:18;10.43;;;8.13;;
24761;SDS011;12865;51.934;10.330;2022-09-24T15:48:05;9.38;;;8.38;;
24761;SDS011;12865;51.934;10.330;2022-09-24T15:50:51;10.65;;;8.95;;
24761;SDS011;12865;51.934;10.330;2022-09-24T15:53:37;9.65;;;8.65;;
24761;SDS011;12865;51.934;10.330;2022-09-24T15:56:23;7.90;;;7.15;;
24761;SDS011;12865;51.934;10.330;2022-09-24T15:59:12;7.88;;;7.05;;
24761;SDS011;12865;51.934;10.330;2022-09-24T16:02:00;8.82;;;7.32;;
24761;SDS011;12865;51.934;10.330;2022-09-24T16:04:48;7.65;;;6.85;;
24761;SDS011;12865;51.934;10.330;2022-09-24T16:07:33;8.52;;;7.68;;
24761;SDS011;12865;51.934;10.330;2022-09-24T16:10:19;8.90;;;8.00;;
24761;SDS011;12865;51.934;10.330;2022-09-24T16:13:05;8.95;;;8.05;;
24761;SDS011;12865;51.934;10.330;2022-09-24T16:15:52;8.40;;;7.57;;
24761;SDS011;12865;51.934;10.330;2022-09-24T16:18:37;9.73;;;8.15;;
24761;SDS011;12865;51.934;10.330;2022-09-24T16:21:25;9.27;;;8.25;;
24761;SDS011;12865;51.934;10.330;2022-09-24T16:24:10;9.70;;;8.07;;
24761;SDS011;12865;51.934;10.330;2022-09-24T16:26:56;8.55;;;7.60;;
24761;SDS011;12865;51.934;10.330;2022-09-24T16:29:43;7.40;;;6.65;;
24761;SDS011;12865;51.934;10.330;2022-09-24T16:32:29;8.98;;;7.30;;
24761;SDS011;12865;51.934;10.330;2022-09-24T16:35:15;7.40;;;6.70;;
24761;SDS011;12865;51.934;10.330;2022-09-24T16:38:01;8.82;;;7.25;;
24761;SDS011;12865;51.934;10.330;2022-09-24T16:40:47;8.82;;;7.93;;
24761;SDS011;12865;51.934;10.330;2022-09-24T16:43:33;9.77;;;7.75;;
24761;SDS011;12865;51.934;10.330;2022-09-24T16:46:19;7.90;;;7.13;;
24761;SDS011;12865;51.934;10.330;2022-09-24T16:49:04;9.27;;;8.27;;
24761;SDS011;12865;51.934;10.330;2022-09-24T16:51:50;8.98;;;7.30;;
24761;SDS011;12865;51.934;10.330;2022-09-24T16:54:36;10.50;;;8.18;;
24761;SDS011;12865;51.934;10.330;2022-09-24T16:57:21;10.00;;;9.00;;
24761;SDS011;12865;51.934;10.330;2022-09-24T17:00:07;11.15;;;9.13;;
24761;SDS011;12865;51.934;10.330;2022-09-24T17:02:55;10.75;;;9.10;;
24761;SDS011;12865;51.934;10.330;2022-09-24T17:05:41;9.75;;;8.75;;
24761;SDS011;12865;51.934;10.330;2022-09-24T17:08:26;10.40;;;9.25;;
24761;SDS011;12865;51.934;10.330;2022-09-24T17:11:34;9.05;;;8.15;;
24761;SDS011;12865;51.934;10.330;2022-09-24T17:14:21;9.52;;;8.45;;
24761;SDS011;12865;51.934;10.330;2022-09-24T17:17:07;10.02;;;8.82;;
24761;SDS011;12865;51.934;10.330;2022-09-24T17:19:53;9.85;;;8.85;;
24761;SDS011;12865;51.934;10.330;2022-09-24T17:22:38;9.90;;;8.65;;
24761;SDS011;12865;51.934;10.330;2022-09-24T17:25:24;9.10;;;8.23;;
24761;SDS011;12865;51.934;10.330;2022-09-24T17:28:12;9.05;;;8.13;;
24761;SDS011;12865;51.934;10.330;2022-09-24T17:30:57;10.15;;;8.80;;
24761;SDS011;12865;51.934;10.330;2022-09-24T17:33:43;9.13;;;8.20;;
24761;SDS011;12865;51.934;10.330;2022-09-24T17:36:29;9.82;;;8.82;;
24761;SDS011;12865;51.934;10.330;2022-09-24T17:39:17;10.07;;;8.52;;
24761;SDS011;12865;51.934;10.330;2022-09-24T17:42:03;10.82;;;9.13;;
24761;SDS011;12865;51.934;10.330;2022-09-24T17:44:48;10.93;;;9.35;;
24761;SDS011;12865;51.934;10.330;2022-09-24T17:47:34;9.70;;;8.75;;
24761;SDS011;12865;51.934;10.330;2022-09-24T17:50:39;10.30;;;9.40;;
24761;SDS011;12865;51.934;10.330;2022-09-24T17:53:31;9.40;;;8.50;;
24761;SDS011;12865;51.934;10.330;2022-09-24T17:56:19;12.02;;;10.00;;
24761;SDS011;12865;51.934;10.330;2022-09-24T17:59:07;11.88;;;10.18;;
24761;SDS011;12865;51.934;10.330;2022-09-24T18:01:54;11.85;;;10.25;;
24761;SDS011;12865;51.934;10.330;2022-09-24T18:04:39;10.48;;;9.10;;
24761;SDS011;12865;51.934;10.330;2022-09-24T18:07:25;11.38;;;10.07;;
24761;SDS011;12865;51.934;10.330;2022-09-24T18:10:11;10.68;;;9.20;;
24761;SDS011;12865;51.934;10.330;2022-09-24T18:12:57;9.43;;;8.50;;
24761;SDS011;12865;51.934;10.330;2022-09-24T18:15:43;9.98;;;9.07;;
24761;SDS011;12865;51.934;10.330;2022-09-24T18:18:30;9.23;;;8.32;;
24761;SDS011;12865;51.934;10.330;2022-09-24T18:21:17;11.23;;;8.90;;
24761;SDS011;12865;51.934;10.330;2022-09-24T18:24:04;8.77;;;7.97;;
24761;SDS011;12865;51.934;10.330;2022-09-24T18:26:50;9.73;;;8.73;;
24761;SDS011;12865;51.934;10.330;2022-09-24T18:29:36;9.13;;;8.23;;
24761;SDS011;12865;51.934;10.330;2022-09-24T18:32:22;9.20;;;8.23;;
24761;SDS011;12865;51.934;10.330;2022-09-24T18:35:08;11.40;;;8.40;;
24761;SDS011;12865;51.934;10.330;2022-09-24T18:37:54;10.27;;;8.48;;
24761;SDS011;12865;51.934;10.330;2022-09-24T18:40:39;8.82;;;7.95;;
24761;SDS011;12865;51.934;10.330;2022-09-24T18:43:26;8.80;;;8.00;;
24761;SDS011;12865;51.934;10.330;2022-09-24T18:46:13;11.13;;;8.40;;
24761;SDS011;12865;51.934;10.330;2022-09-24T18:49:00;8.95;;;8.10;;
24761;SDS011;12865;51.934;10.330;2022-09-24T18:51:46;9.27;;;8.38;;
24761;SDS011;12865;51.934;10.330;2022-09-24T18:54:33;12.13;;;9.02;;
24761;SDS011;12865;51.934;10.330;2022-09-24T18:57:19;11.23;;;8.45;;
24761;SDS011;12865;51.934;10.330;2022-09-24T19:00:05;10.00;;;9.02;;
24761;SDS011;12865;51.934;10.330;2022-09-24T19:03:12;15.20;;;10.50;;
24761;SDS011;12865;51.934;10.330;2022-09-24T19:06:01;10.75;;;9.30;;
24761;SDS011;12865;51.934;10.330;2022-09-24T19:08:49;9.65;;;8.70;;
24761;SDS011;12865;51.934;10.330;2022-09-24T19:11:35;11.13;;;8.75;;
24761;SDS011;12865;51.934;10.330;2022-09-24T19:14:21;9.02;;;8.05;;